Portada
METAR-TAF:

METAR-TAF

Aeroports :

Nouméa, Nova Caledònia

latitud: 22-15-30S, longitud: 166-28-22E, altitud: 3 m

METAR: manca

Hora: 08:56 (21:56 UTC)

Pronòstic

L'informe es va fer fa 4 hores i 56 minuts, a les 17:00 UTC
Pronòstic vàlid del 26 a les 18 UTC al 27 a les 18 UTC
Vent 2 kt amb direcció variable
Visibilitat 10 km o més
Cel ennuvolat a una alçada de 2000 ft
Temporalment
l' 26 a les 18 UTC al 26 a les 24 UTC
Visibilitat: 4000 m
Cel ennuvolat a una alçada de 1400 ft
Escasses núvols a una alçada de 2000 ft, Cumulonimbus.
xàfecs de pluja
Probabilitat 30% :
Temporalment
l' 26 a les 18 UTC al 26 a les 24 UTC
Visibilitat: 2000 m
Cel ennuvolat a una alçada de 1000 ft
Núvols disperses a una alçada de 1600 ft, Cumulonimbus.
xàfecs de pluja
Evolucionant progressivament
l' 26 a les 22 UTC al 26 a les 24 UTC
Vent 10 kt del Sud/Sud-Est

TAF: NWWM 261700Z 2618/2718 VRB02KT 9999 BKN020 TEMPO 2618/2624 4000 SHRA BKN014 FEW020CB PROB30 TEMPO 2618/2624 2000 SHRA BKN010 SCT016CB BECMG 2622/2624 16010KT

Observacions i pronòstics meteorològics de més de 4000 aeroports (METAR i TAF).

Les estacions disponibles són els punts grocs i vermells al mapa.

Posi el ratolí al punt desitjat per veure el nom de l'estació.

Feu clic per veure les observacions i els pronòstics meteorològics.

Per canviar el mapa: feu clic els botons verds amb una creu de color negre per apropar; al botó verd amb un guió per allunyar la imatge; o en les fletxes verdes per a mapes adjacents.


METAR-TAF: